Time;durP1;ratioP1;P1;durP2;ratioP2;P2;SDS_P1;SDS_P2;PMS_P1;PMS_P2;Temp;Humidity;BMP_temperature;BMP_pressure;BME280_temperature;BME280_humidity;BME280_pressure;Samples;Min_cycle;Max_cycle;Signal;HPM_P1;HPM_P2
2020/12/09 00:01:55;;;;;;;45.23;18.75;;;;;;;-2.22;73.83;101931.29;1770799;79;25626;-56
2020/12/09 00:04:23;;;;;;;49.13;20.68;;;;;;;-2.13;73.87;101943.46;1772107;79;25480;-57
2020/12/09 00:06:51;;;;;;;38.67;17.57;;;;;;;-2.04;74.40;101949.91;1762536;81;25662;-56
2020/12/09 00:09:20;;;;;;;48.65;18.55;;;;;;;-1.96;73.67;101947.11;1763296;79;26158;-57
2020/12/09 00:11:54;;;;;;;45.83;19.80;;;;;;;-1.92;73.62;101951.45;1762868;79;26784;-57
2020/12/09 00:14:22;;;;;;;;;;;;;;;-1.85;73.74;101953.08;1765392;79;25617;-57
2020/12/09 00:16:50;;;;;;;46.90;17.23;;;;;;;-1.83;73.65;101953.93;1763009;79;25681;-56
2020/12/09 00:19:18;;;;;;;54.67;20.27;;;;;;;-1.75;74.03;101955.98;1770200;79;26517;-56
2020/12/09 00:21:46;;;;;;;46.00;20.57;;;;;;;-1.68;73.89;101955.42;1793830;79;25596;-56
2020/12/09 00:24:15;;;;;;;47.62;20.17;;;;;;;-1.67;73.46;101957.17;1770110;79;28476;-56
2020/12/09 00:26:43;;;;;;;47.73;20.25;;;;;;;-1.63;73.64;101950.92;1762244;81;26349;-55
2020/12/09 00:29:12;;;;;;;48.10;19.65;;;;;;;-1.54;73.56;101950.32;1774954;79;25640;-56
2020/12/09 00:31:40;;;;;;;43.55;19.25;;;;;;;-1.48;73.64;101954.19;1762610;81;25665;-56
2020/12/09 00:34:08;;;;;;;49.73;19.92;;;;;;;-1.44;73.58;101947.93;1766899;79;25731;-56
2020/12/09 00:36:36;;;;;;;58.50;19.73;;;;;;;-1.38;73.49;101945.63;1793992;79;27526;-55
2020/12/09 00:39:04;;;;;;;49.13;17.55;;;;;;;-1.36;72.69;101938.55;1788271;79;25695;-56
2020/12/09 00:41:32;;;;;;;47.65;20.12;;;;;;;-1.35;72.89;101931.91;1762770;79;25446;-56
2020/12/09 00:44:00;;;;;;;38.63;18.82;;;;;;;-1.32;72.69;101935.82;1768719;79;25797;-56
2020/12/09 00:46:28;;;;;;;45.92;18.92;;;;;;;-1.30;72.62;101933.99;1776714;79;25644;-56
2020/12/09 00:48:58;;;;;;;42.50;17.82;;;;;;;-1.24;72.66;101929.05;1724296;83;28421;-56
2020/12/09 00:51:27;;;;;;;52.23;20.52;;;;;;;-1.19;72.44;101939.52;1735115;82;25680;-56
2020/12/09 00:53:56;;;;;;;47.25;17.95;;;;;;;-1.17;72.47;101932.44;1739044;82;26345;-56
2020/12/09 00:56:26;;;;;;;49.05;19.00;;;;;;;-1.14;72.37;101919.17;1741572;82;25783;-56
2020/12/09 00:58:56;;;;;;;43.38;17.85;;;;;;;-1.10;72.19;101927.44;1740591;82;26613;-56
2020/12/09 01:01:24;;;;;;;43.55;18.00;;;;;;;-1.12;71.55;101925.30;1714270;83;27448;-56
2020/12/09 01:03:54;;;;;;;48.60;18.05;;;;;;;-1.12;71.79;101930.12;1713873;82;25692;-56
2020/12/09 01:06:22;;;;;;;42.70;19.17;;;;;;;-1.07;71.74;101923.42;1714128;82;25435;-56
2020/12/09 01:08:49;;;;;;;42.45;18.48;;;;;;;-1.12;70.86;101919.55;1736144;82;26392;-56
2020/12/09 01:11:22;;;;;;;44.20;17.07;;;;;;;-1.15;71.23;101914.80;1743357;81;25697;-55
2020/12/09 01:13:50;;;;;;;47.62;19.48;;;;;;;-1.12;71.46;101922.20;1743607;82;28437;-56
2020/12/09 01:16:19;;;;;;;44.15;18.70;;;;;;;-1.08;71.42;101929.60;1743308;82;26059;-56
2020/12/09 01:18:49;;;;;;;40.92;18.15;;;;;;;-1.07;71.46;101930.02;1725096;82;25655;-56
2020/12/09 01:21:31;;;;;;;45.70;18.85;;;;;;;-1.04;71.20;101937.89;1743732;82;26507;-56
2020/12/09 01:23:59;;;;;;;44.35;18.23;;;;;;;-1.06;70.83;101936.16;1743583;81;25833;-56
2020/12/09 01:26:27;;;;;;;45.38;18.40;;;;;;;-1.07;70.86;101933.98;1715687;81;27525;-56
2020/12/09 01:28:55;;;;;;;48.20;19.65;;;;;;;-1.12;70.14;101934.55;1714165;82;25724;-56
2020/12/09 01:31:24;;;;;;;50.52;16.87;;;;;;;-1.19;70.10;101932.48;1722433;82;25726;-56
2020/12/09 01:33:52;;;;;;;50.85;18.65;;;;;;;-1.18;70.65;101928.05;1725201;81;25557;-56
2020/12/09 01:36:24;;;;;;;42.13;17.77;;;;;;;-1.18;70.55;101926.30;1714355;82;25653;-56
2020/12/09 01:38:54;;;;;;;44.50;19.47;;;;;;;-1.19;70.62;101924.98;1714391;82;27540;-56
2020/12/09 01:41:24;;;;;;;45.55;18.87;;;;;;;-1.20;70.79;101925.89;1713943;83;25609;-56
2020/12/09 01:43:54;;;;;;;40.38;16.85;;;;;;;-1.20;70.50;101921.92;1736091;82;25653;-56
2020/12/09 01:46:30;;;;;;;50.70;18.48;;;;;;;-1.29;70.00;101920.36;1729791;82;26484;-56
2020/12/09 01:49:01;;;;;;;47.00;19.10;;;;;;;-1.42;70.18;101921.06;1714761;82;26017;-56
2020/12/09 01:51:30;;;;;;;44.42;19.82;;;;;;;-1.42;70.86;101917.95;1714348;82;27577;-56
2020/12/09 01:54:00;;;;;;;50.30;18.05;;;;;;;-1.36;71.11;101914.80;1711242;82;25511;-56
2020/12/09 01:56:29;;;;;;;36.68;16.52;;;;;;;-1.35;71.12;101909.47;1763042;79;25638;-56
2020/12/09 01:58:56;;;;;;;42.25;18.30;;;;;;;-1.29;70.82;101909.80;1762820;79;26489;-56
2020/12/09 02:01:24;;;;;;;49.60;19.12;;;;;;;-1.36;70.39;101905.55;1762668;81;25752;-56
2020/12/09 02:03:52;;;;;;;51.53;19.92;;;;;;;-1.39;70.92;101906.46;1762611;81;27337;-56
2020/12/09 02:06:20;;;;;;;54.98;20.52;;;;;;;-1.35;71.27;101904.19;1762584;79;26104;-56
2020/12/09 02:08:48;;;;;;;45.12;17.30;;;;;;;-1.32;71.18;101904.14;1762736;79;25789;-56
2020/12/09 02:11:16;;;;;;;56.30;20.27;;;;;;;-1.32;71.02;101902.82;1762586;80;25728;-56
2020/12/09 02:13:46;;;;;;;57.40;20.23;;;;;;;-1.42;71.01;101898.63;1762831;79;25665;-56
2020/12/09 02:16:18;;;;;;;51.90;20.12;;;;;;;-1.47;71.39;101908.39;1762808;79;28439;-56
2020/12/09 02:18:45;;;;;;;54.83;21.62;;;;;;;-1.42;71.93;101906.08;1762457;79;25680;-56
2020/12/09 02:21:13;;;;;;;50.10;19.87;;;;;;;-1.33;72.10;101898.88;1791599;79;25651;-56
2020/12/09 02:23:42;;;;;;;59.15;20.60;;;;;;;-1.31;72.18;101905.00;1776574;79;25671;-56
2020/12/09 02:26:10;;;;;;;60.73;20.97;;;;;;;-1.24;72.47;101903.95;1779208;79;26207;-60
2020/12/09 02:28:38;;;;;;;56.23;20.82;;;;;;;-1.21;71.89;101905.69;1784898;79;27498;-56
2020/12/09 02:31:06;;;;;;;57.85;22.50;;;;;;;-1.27;71.90;101906.22;1762449;80;25693;-56
2020/12/09 02:33:34;;;;;;;54.30;20.68;;;;;;;-1.26;71.96;101911.92;1762616;79;25601;-56
2020/12/09 02:36:02;;;;;;;54.83;21.33;;;;;;;-1.24;71.79;101907.92;1762615;81;26907;-57
2020/12/09 02:38:29;;;;;;;51.92;20.85;;;;;;;-1.24;71.82;101910.56;1762702;79;25789;-56
2020/12/09 02:40:57;;;;;;;65.20;23.25;;;;;;;-1.25;72.00;101910.14;1762440;81;27533;-56
2020/12/09 02:43:25;;;;;;;54.60;24.07;;;;;;;-1.22;71.91;101903.95;1763269;79;26154;-56
2020/12/09 02:45:54;;;;;;;48.58;21.62;;;;;;;-1.21;71.95;101903.91;1762728;79;26452;-56
2020/12/09 02:48:22;;;;;;;66.22;23.25;;;;;;;-1.14;72.41;101905.51;1792126;79;25785;-56
2020/12/09 02:50:49;;;;;;;64.12;23.18;;;;;;;-1.07;72.54;101908.89;1771317;79;26044;-56
2020/12/09 02:53:17;;;;;;;56.60;21.52;;;;;;;-1.03;71.90;101907.91;1762694;79;28548;-56
2020/12/09 02:55:45;;;;;;;55.17;20.43;;;;;;;-0.99;71.92;101900.35;1768265;79;25677;-56
2020/12/09 02:58:13;;;;;;;54.48;20.92;;;;;;;-0.97;71.83;101900.30;1768682;81;25714;-56
2020/12/09 03:00:41;;;;;;;54.88;19.62;;;;;;;-0.97;71.72;101902.52;1768938;79;26226;-56
2020/12/09 03:03:09;;;;;;;47.35;20.62;;;;;;;-0.97;71.52;101895.02;1769075;79;26108;-56
2020/12/09 03:05:36;;;;;;;51.00;22.52;;;;;;;-0.97;71.54;101895.02;1790738;79;27526;-56
2020/12/09 03:08:04;;;;;;;55.25;21.65;;;;;;;-1.00;71.66;101893.33;1800351;79;26283;-56
2020/12/09 03:10:32;;;;;;;67.37;24.27;;;;;;;-1.02;71.23;101889.84;1800249;79;25469;-56
2020/12/09 03:13:00;;;;;;;71.53;23.30;;;;;;;-1.06;71.12;101893.47;1778092;79;25710;-56
2020/12/09 03:15:28;;;;;;;65.42;24.10;;;;;;;-1.09;71.38;101900.59;1776040;79;25674;-56
2020/12/09 03:17:56;;;;;;;59.98;23.65;;;;;;;-1.08;71.71;101907.16;1786710;79;27522;-57
2020/12/09 03:20:24;;;;;;;50.08;21.80;;;;;;;-1.03;71.73;101913.19;1768683;81;25650;-56
2020/12/09 03:22:53;;;;;;;51.53;22.50;;;;;;;-0.97;71.73;101914.83;1768885;79;25510;-57
2020/12/09 03:25:21;;;;;;;63.87;23.27;;;;;;;-0.94;71.77;101918.73;1777359;79;25612;-55
2020/12/09 03:27:49;;;;;;;55.30;20.95;;;;;;;-0.88;71.92;101919.91;1768816;80;26584;-56
2020/12/09 03:30:18;;;;;;;47.90;19.65;;;;;;;-0.87;71.44;101916.84;1769064;79;27523;-56
2020/12/09 03:32:46;;;;;;;45.12;19.60;;;;;;;-0.85;71.41;101923.82;1768792;79;25753;-57
2020/12/09 03:35:14;;;;;;;53.75;21.40;;;;;;;-0.81;71.70;101921.51;1768757;81;25640;-57
2020/12/09 03:37:42;;;;;;;43.05;18.55;;;;;;;-0.76;71.69;101923.19;1778668;78;25791;-57
2020/12/09 03:40:09;;;;;;;49.25;20.12;;;;;;;-0.76;71.25;101924.05;1768736;80;25754;-57
2020/12/09 03:42:37;;;;;;;50.40;20.30;;;;;;;-0.75;71.10;101920.50;1775909;79;27612;-57
2020/12/09 03:45:05;;;;;;;50.23;20.20;;;;;;;-0.77;71.12;101926.30;1799957;79;25646;-57
2020/12/09 03:47:52;;;;;;;50.85;19.98;;;;;;;-0.77;71.03;101916.16;1794936;79;46847;-57
2020/12/09 03:50:20;;;;;;;51.90;20.37;;;;;;;-0.79;70.89;101922.81;1770059;79;25758;-57
2020/12/09 03:52:49;;;;;;;46.02;19.20;;;;;;;-0.77;71.00;101918.80;1768675;79;26201;-57
2020/12/09 03:55:17;;;;;;;51.60;21.30;;;;;;;-0.77;71.09;101921.02;1768657;80;27608;-57
2020/12/09 03:57:45;;;;;;;51.23;21.02;;;;;;;-0.80;70.72;101916.64;1768814;79;25699;-57
2020/12/09 04:00:14;;;;;;;49.80;19.50;;;;;;;-0.83;70.65;101917.17;1768836;79;25758;-56
2020/12/09 04:02:43;;;;;;;55.48;18.82;;;;;;;-0.83;70.84;101923.34;1773015;79;26445;-56
2020/12/09 04:05:11;;;;;;;53.15;20.05;;;;;;;-0.82;71.09;101920.23;1799951;79;26223;-56
2020/12/09 04:07:39;;;;;;;45.50;19.50;;;;;;;-0.80;71.08;101929.00;1800163;79;28042;-56
2020/12/09 04:10:07;;;;;;;58.30;21.82;;;;;;;-0.78;71.22;101929.84;1799644;79;25723;-56
2020/12/09 04:12:35;;;;;;;50.67;22.02;;;;;;;-0.77;70.99;101936.88;1773689;79;25735;-56
2020/12/09 04:15:04;;;;;;;50.28;20.32;;;;;;;-0.79;71.04;101930.28;1768597;80;25543;-56
2020/12/09 04:17:32;;;;;;;65.90;23.30;;;;;;;-0.76;71.08;101931.97;1770672;79;26060;-56
2020/12/09 04:20:00;;;;;;;53.33;23.92;;;;;;;-0.79;70.62;101922.81;1768783;79;27538;-57
2020/12/09 04:22:28;;;;;;;62.43;25.27;;;;;;;-0.86;70.72;101930.00;1768682;81;25619;-56
2020/12/09 04:24:56;;;;;;;59.40;23.20;;;;;;;-0.85;70.85;101934.85;1768698;81;25656;-57
2020/12/09 04:27:24;;;;;;;59.70;24.37;;;;;;;-0.88;70.61;101930.48;1768569;80;25688;-57
2020/12/09 04:29:52;;;;;;;55.20;24.32;;;;;;;-0.91;70.66;101928.36;1768582;81;25702;-56
2020/12/09 04:32:20;;;;;;;60.95;23.10;;;;;;;-0.94;70.88;101927.98;1768736;80;27981;-56
2020/12/09 04:34:49;;;;;;;52.60;22.85;;;;;;;-0.90;71.12;101923.50;1768412;81;25823;-56
2020/12/09 04:37:20;;;;;;;55.75;24.43;;;;;;;-0.88;71.12;101929.63;1768814;81;25659;-56
2020/12/09 04:39:49;;;;;;;57.98;21.60;;;;;;;-0.87;70.97;101931.37;1768675;81;26410;-57
2020/12/09 04:42:22;;;;;;;52.17;21.65;;;;;;;-0.83;71.15;101931.70;1768787;81;26090;-57
2020/12/09 04:44:52;;;;;;;54.70;22.10;;;;;;;-0.79;71.21;101935.56;1768714;80;27641;-57
2020/12/09 04:47:43;;;;;;;66.07;23.45;;;;;;;-0.80;71.00;101927.21;1768593;81;25714;-57
2020/12/09 04:50:13;;;;;;;59.18;24.43;;;;;;;-0.82;70.82;101932.13;1758765;81;25704;-57
2020/12/09 04:53:05;;;;;;;61.90;24.05;;;;;;;-0.80;71.00;101924.57;1768781;81;25825;-57
2020/12/09 04:55:33;;;;;;;58.08;23.20;;;;;;;-0.81;70.85;101930.75;1768644;79;26136;-57
2020/12/09 04:58:16;;;;;;;54.10;23.75;;;;;;;-0.83;71.01;101925.98;1768929;81;27521;-57
2020/12/09 05:00:47;;;;;;;60.92;22.93;;;;;;;-0.79;71.07;101929.42;1768655;79;25497;-57
2020/12/09 05:03:20;;;;;;;55.17;25.23;;;;;;;-0.80;70.83;101931.64;1768929;81;25691;-56
2020/12/09 05:05:48;;;;;;;58.30;23.87;;;;;;;-0.86;70.88;101927.36;1768879;81;25700;-57
2020/12/09 05:08:22;;;;;;;61.80;23.60;;;;;;;-0.89;70.89;101930.53;1768847;81;26155;-57
2020/12/09 05:10:52;;;;;;;;;;;;;;;-0.92;70.78;101933.22;1771440;80;28615;-57
2020/12/09 05:13:27;;;;;;;61.00;23.47;;;;;;;-0.99;70.98;101925.91;1768776;81;25645;-57
2020/12/09 05:15:57;;;;;;;58.25;23.22;;;;;;;-1.02;71.04;101924.64;1768785;79;25806;-57
2020/12/09 05:18:42;;;;;;;58.70;23.65;;;;;;;-1.04;71.22;101929.08;1769181;79;26479;-57
2020/12/09 05:21:20;;;;;;;70.25;26.85;;;;;;;-1.05;71.57;101926.91;1769774;79;25495;-56
2020/12/09 05:23:55;;;;;;;64.55;28.62;;;;;;;-1.04;71.34;101929.97;1768897;80;27522;-57
2020/12/09 05:26:31;;;;;;;72.05;29.32;;;;;;;-1.03;71.49;101936.11;1769111;79;26218;-56
2020/12/09 05:29:16;;;;;;;64.35;24.07;;;;;;;-1.00;71.63;101951.44;1768949;79;25641;-56
2020/12/09 05:31:51;;;;;;;55.08;23.18;;;;;;;-1.01;71.43;101949.69;1792059;79;25535;-57
2020/12/09 05:34:29;;;;;;;57.62;25.32;;;;;;;-0.99;71.57;101945.72;1771744;79;25676;-57
2020/12/09 05:37:08;;;;;;;67.90;26.93;;;;;;;-0.96;71.54;101951.80;1776393;78;28484;-56
2020/12/09 05:39:52;;;;;;;65.08;26.40;;;;;;;-1.00;71.34;101947.47;1768945;79;25713;-57
2020/12/09 05:42:23;;;;;;;69.32;25.65;;;;;;;-0.97;71.73;101950.06;1768745;81;25719;-55
2020/12/09 05:44:51;;;;;;;63.25;24.43;;;;;;;-0.95;71.66;101949.58;1768595;80;26270;-56
2020/12/09 05:47:23;;;;;;;57.55;21.45;;;;;;;-0.98;71.44;101945.67;1783517;79;25646;-57
2020/12/09 05:49:51;;;;;;;50.15;21.95;;;;;;;-0.97;71.60;101954.02;1778115;79;27510;-56
2020/12/09 05:52:21;;;;;;;47.27;21.55;;;;;;;-0.97;71.61;101943.89;1796896;79;25578;-57
2020/12/09 05:54:53;;;;;;;51.23;21.62;;;;;;;-0.97;71.72;101943.45;1799477;78;25667;-57
2020/12/09 05:57:26;;;;;;;45.10;19.05;;;;;;;-0.97;71.87;101945.20;1793822;79;25717;-56
2020/12/09 05:59:55;;;;;;;38.53;17.52;;;;;;;-0.95;71.75;101941.66;1782015;79;25648;-56
2020/12/09 06:02:29;;;;;;;46.13;18.75;;;;;;;-0.93;71.68;101940.73;1762482;81;27529;-56
2020/12/09 06:05:00;;;;;;;48.48;19.55;;;;;;;-0.99;71.36;101937.80;1764725;79;26214;-56
2020/12/09 06:07:31;;;;;;;52.10;19.98;;;;;;;-1.02;71.62;101946.62;1793715;79;25506;-56
2020/12/09 06:10:17;;;;;;;46.37;21.17;;;;;;;-1.04;71.94;101944.50;1793774;79;25665;-57
2020/12/09 06:12:56;;;;;;;46.95;19.85;;;;;;;-1.05;71.91;101952.00;1793697;79;26747;-57
2020/12/09 06:15:32;;;;;;;44.00;20.88;;;;;;;-1.06;72.25;101941.01;1791717;79;27523;-56
2020/12/09 06:18:11;;;;;;;;;;;;;;;-1.03;72.30;101942.24;1765109;81;25728;-57
2020/12/09 06:20:41;;;;;;;41.90;18.45;;;;;;;-1.03;72.07;101946.20;1772405;79;25590;-57
2020/12/09 06:23:12;;;;;;;43.85;18.50;;;;;;;-1.06;72.04;101946.30;1779886;79;26461;-57
2020/12/09 06:25:44;;;;;;;43.28;18.35;;;;;;;-1.06;71.89;101950.69;1762779;79;25667;-57
2020/12/09 06:28:19;;;;;;;42.58;17.20;;;;;;;-1.04;72.16;101947.14;1773377;79;28441;-57
2020/12/09 06:30:53;;;;;;;42.35;18.95;;;;;;;-1.02;72.03;101947.95;1762345;81;25728;-57
2020/12/09 06:33:41;;;;;;;40.85;18.80;;;;;;;-0.99;72.16;101949.68;1764733;78;26313;-58
2020/12/09 06:36:21;;;;;;;46.65;19.12;;;;;;;-1.01;72.09;101954.97;1748753;81;25748;-57
2020/12/09 06:39:15;;;;;;;48.70;20.65;;;;;;;-0.99;71.95;101957.61;1829652;78;25699;-57
2020/12/09 06:42:01;;;;;;;42.93;16.95;;;;;;;-1.01;72.03;101945.73;1748808;81;27473;-55
2020/12/09 06:44:30;;;;;;;33.05;15.10;;;;;;;-0.98;72.22;101948.31;1824829;78;25666;-58
2020/12/09 06:47:00;;;;;;;43.48;16.82;;;;;;;-0.95;72.27;101948.27;1774464;78;25668;-58
2020/12/09 06:49:36;;;;;;;35.03;16.17;;;;;;;-0.99;72.23;101950.53;1762537;81;25545;-58
2020/12/09 06:52:15;;;;;;;40.65;15.18;;;;;;;-1.01;72.31;101951.02;1721567;83;25642;-58
2020/12/09 06:54:49;;;;;;;31.52;15.18;;;;;;;-0.99;72.37;101949.22;1705621;84;28985;-58
2020/12/09 06:57:29;;;;;;;35.08;16.20;;;;;;;-0.98;72.43;101960.20;1781773;79;25797;-58
2020/12/09 07:00:19;;;;;;;31.95;16.07;;;;;;;-0.98;72.43;101960.20;1779396;79;25604;-57
2020/12/09 07:02:51;;;;;;;33.67;15.93;;;;;;;-0.98;72.33;101958.00;1801765;79;25931;-57
2020/12/09 07:05:29;;;;;;;43.55;17.48;;;;;;;-0.93;72.54;101963.18;1811707;79;25619;-58
2020/12/09 07:08:06;;;;;;;37.63;16.75;;;;;;;-0.88;72.70;101960.01;1811646;79;28499;-58
2020/12/09 07:10:35;;;;;;;36.35;16.73;;;;;;;-0.84;72.80;101973.12;1811712;79;25635;-56
2020/12/09 07:13:14;;;;;;;31.35;14.85;;;;;;;-0.82;72.66;101975.28;1811576;79;25573;-56
2020/12/09 07:15:47;;;;;;;30.05;13.45;;;;;;;-0.76;72.80;101973.40;1811561;79;26576;-57
2020/12/09 07:18:16;;;;;;;40.17;15.95;;;;;;;-0.83;72.66;101970.90;1811945;79;25722;-57
2020/12/09 07:20:48;;;;;;;39.53;15.93;;;;;;;-0.88;72.67;101969.25;1811756;79;27392;-57
2020/12/09 07:23:16;;;;;;;41.92;15.60;;;;;;;-0.91;72.97;101964.91;1808345;78;26413;-57
2020/12/09 07:25:44;;;;;;;36.05;14.85;;;;;;;-0.92;73.50;101963.17;1811361;79;25629;-57
2020/12/09 07:28:12;;;;;;;45.15;17.42;;;;;;;-0.93;73.25;101973.75;1811071;79;26505;-57
2020/12/09 07:30:41;;;;;;;40.17;15.35;;;;;;;-0.97;73.20;101963.27;1809593;79;25760;-57
2020/12/09 07:33:09;;;;;;;43.30;18.35;;;;;;;-0.92;73.24;101968.89;1809697;79;27611;-57
2020/12/09 07:35:36;;;;;;;35.45;16.45;;;;;;;-0.93;73.45;101973.31;1737905;82;26110;-57
2020/12/09 07:38:06;;;;;;;38.08;17.12;;;;;;;-0.93;73.31;101968.47;1800715;79;25656;-57
2020/12/09 07:40:34;;;;;;;43.30;17.17;;;;;;;-0.90;73.50;101974.58;1779146;80;26821;-57
2020/12/09 07:43:12;;;;;;;51.73;19.82;;;;;;;-0.88;73.62;101972.75;1779403;80;25433;-57
2020/12/09 07:45:44;;;;;;;39.35;16.67;;;;;;;-0.87;73.59;101981.56;1779009;79;28508;-57
2020/12/09 07:48:16;;;;;;;38.88;17.52;;;;;;;-0.86;73.42;101988.59;1739028;82;25729;-56
2020/12/09 07:50:52;;;;;;;45.83;19.92;;;;;;;-0.88;73.28;101985.11;1779363;80;25454;-56
2020/12/09 07:53:22;;;;;;;49.13;18.65;;;;;;;-0.86;73.42;101989.91;1779210;79;25680;-57
2020/12/09 07:55:51;;;;;;;46.48;19.37;;;;;;;-0.89;73.45;101982.90;1777253;80;25961;-57
2020/12/09 07:58:22;;;;;;;43.33;17.80;;;;;;;-0.92;73.31;101990.91;1770459;81;28479;-57
2020/12/09 08:00:52;;;;;;;43.75;19.60;;;;;;;-0.92;73.49;101989.59;1770339;81;25644;-56
2020/12/09 08:03:22;;;;;;;41.05;18.15;;;;;;;-0.88;73.63;101995.67;1770382;81;25787;-57
2020/12/09 08:05:53;;;;;;;35.63;17.60;;;;;;;-0.84;73.48;101998.22;1770541;81;25712;-56
2020/12/09 08:08:23;;;;;;;50.63;19.15;;;;;;;-0.78;73.44;101997.22;1770547;80;25675;-56
2020/12/09 08:10:51;;;;;;;41.28;19.52;;;;;;;-0.73;73.41;101992.70;1770546;81;27571;-57
2020/12/09 08:13:24;;;;;;;65.47;20.10;;;;;;;-0.77;73.19;102000.28;1770469;80;26148;-56
2020/12/09 08:16:08;;;;;;;45.55;20.25;;;;;;;-0.80;73.28;102001.66;1770616;80;25737;-57
2020/12/09 08:18:37;;;;;;;58.13;23.98;;;;;;;-0.89;73.44;102010.64;1770716;80;25683;-57
2020/12/09 08:21:05;;;;;;;53.50;21.57;;;;;;;-0.88;73.91;102007.56;1770710;80;25670;-57
2020/12/09 08:23:46;;;;;;;44.80;18.57;;;;;;;-0.86;73.73;101996.52;1770593;81;27534;-57
2020/12/09 08:26:36;;;;;;;41.28;17.55;;;;;;;-0.85;73.78;102001.76;1792192;79;26143;-57
2020/12/09 08:29:06;;;;;;;48.95;21.10;;;;;;;-0.81;73.86;101999.92;1801625;79;25642;-57
2020/12/09 08:31:34;;;;;;;49.93;21.62;;;;;;;-0.81;73.79;101996.81;1800833;79;25681;-56
2020/12/09 08:34:13;;;;;;;40.58;19.20;;;;;;;-0.81;73.80;102006.52;1800823;78;25595;-57
2020/12/09 08:36:41;;;;;;;44.03;20.30;;;;;;;-0.82;73.98;102012.70;1732706;81;27538;-57
2020/12/09 08:39:09;;;;;;;44.38;20.23;;;;;;;-0.87;74.04;102010.16;1721012;83;25727;-57
2020/12/09 08:41:37;;;;;;;49.93;19.32;;;;;;;-0.81;73.99;102003.88;1733921;82;25812;-57
2020/12/09 08:44:07;;;;;;;47.67;21.40;;;;;;;-0.77;74.01;102007.33;1720830;83;25560;-57
2020/12/09 08:46:35;;;;;;;56.30;20.55;;;;;;;-0.76;74.22;102005.11;1718579;82;25709;-57
2020/12/09 08:49:04;;;;;;;45.90;21.07;;;;;;;-0.74;73.96;101998.88;1770430;80;28484;-58
2020/12/09 08:51:34;;;;;;;50.60;22.65;;;;;;;-0.73;73.94;101999.77;1770307;81;26080;-57
2020/12/09 08:54:07;;;;;;;48.40;21.23;;;;;;;-0.71;73.92;101996.19;1770543;81;25705;-57
2020/12/09 08:56:36;;;;;;;48.55;21.50;;;;;;;-0.71;73.80;101996.61;1774176;79;25763;-57
2020/12/09 08:59:04;;;;;;;52.98;20.00;;;;;;;-0.73;73.77;102001.09;1795343;77;25768;-56
2020/12/09 09:01:36;;;;;;;46.25;17.75;;;;;;;-0.75;73.86;101999.78;1795017;79;28473;-56
2020/12/09 09:04:07;;;;;;;60.90;20.48;;;;;;;-0.79;73.81;102002.94;1793820;79;26207;-56
2020/12/09 09:06:34;;;;;;;48.58;19.82;;;;;;;-0.80;73.97;101999.87;1779974;79;25458;-57
2020/12/09 09:09:04;;;;;;;51.63;20.55;;;;;;;-0.77;74.02;101989.72;1745560;81;25783;-56
2020/12/09 09:11:33;;;;;;;52.88;19.52;;;;;;;-0.78;74.25;101995.91;1747229;81;25727;-57
2020/12/09 09:14:01;;;;;;;46.33;19.73;;;;;;;-0.79;74.12;101995.02;1727753;82;28587;-56
2020/12/09 09:16:29;;;;;;;45.48;17.98;;;;;;;-0.81;74.20;101989.34;1748552;82;25677;-56
2020/12/09 09:18:57;;;;;;;42.45;17.55;;;;;;;-0.82;74.46;101988.50;1743874;82;25641;-56
2020/12/09 09:21:25;;;;;;;38.08;18.62;;;;;;;-0.84;74.38;101989.41;1741560;81;26009;-56
2020/12/09 09:23:53;;;;;;;47.13;21.17;;;;;;;-0.86;74.38;101983.31;1724721;82;25725;-55
2020/12/09 09:26:22;;;;;;;55.20;23.07;;;;;;;-0.85;74.53;101981.09;1770343;81;28489;-56
2020/12/09 09:28:50;;;;;;;57.10;20.10;;;;;;;-0.87;74.55;101985.06;1761297;81;26052;-56
2020/12/09 09:31:18;;;;;;;54.93;24.43;;;;;;;-0.87;74.55;101974.96;1733212;82;25780;-56
2020/12/09 09:33:46;;;;;;;54.42;22.82;;;;;;;-0.85;74.55;101971.84;1739777;82;25962;-56
2020/12/09 09:36:15;;;;;;;49.85;22.10;;;;;;;-0.81;74.55;101977.00;1786052;79;26072;-56
2020/12/09 09:38:42;;;;;;;48.90;20.70;;;;;;;-0.78;74.70;101981.38;1792877;79;27507;-56
2020/12/09 09:41:11;;;;;;;53.60;21.07;;;;;;;-0.76;74.58;101975.58;1784468;79;25611;-55
2020/12/09 09:43:39;;;;;;;49.48;19.80;;;;;;;-0.76;74.34;101978.69;1781805;79;25608;-56
2020/12/09 09:46:07;;;;;;;48.65;20.97;;;;;;;-0.71;74.60;101979.44;1810663;79;25685;-56
2020/12/09 09:48:35;;;;;;;49.63;22.10;;;;;;;-0.70;74.52;101976.78;1738282;82;25721;-56
2020/12/09 09:51:03;;;;;;;55.98;20.52;;;;;;;-0.71;74.46;101978.12;1809872;79;27168;-56
2020/12/09 09:53:31;;;;;;;56.68;19.92;;;;;;;-0.76;74.68;101976.05;1738205;82;26351;-56
2020/12/09 09:55:59;;;;;;;42.48;18.95;;;;;;;-0.73;74.58;101979.48;1739883;82;25685;-57
2020/12/09 09:58:27;;;;;;;44.35;21.40;;;;;;;-0.75;74.43;101978.64;1739832;81;25717;-56
2020/12/09 10:00:56;;;;;;;56.75;22.52;;;;;;;-0.77;74.64;101976.94;1739901;81;25454;-56
2020/12/09 10:03:24;;;;;;;56.92;22.90;;;;;;;-0.72;74.83;101973.30;1739490;82;27628;-57
2020/12/09 10:05:52;;;;;;;50.10;21.35;;;;;;;-0.70;74.41;101966.21;1810830;78;26116;-57
2020/12/09 10:08:23;;;;;;;47.40;20.82;;;;;;;-0.72;74.47;101975.09;1811236;78;25662;-56
2020/12/09 10:10:51;;;;;;;48.40;21.17;;;;;;;-0.74;74.51;101974.24;1795175;79;25686;-57
2020/12/09 10:13:19;;;;;;;57.15;24.55;;;;;;;-0.77;74.58;101964.62;1779498;80;25658;-57
2020/12/09 10:15:48;;;;;;;55.08;22.10;;;;;;;-0.78;74.81;101954.95;1779537;80;28492;-57
2020/12/09 10:18:17;;;;;;;55.30;22.30;;;;;;;-0.72;74.70;101965.84;1779235;80;26129;-56
2020/12/09 10:20:45;;;;;;;45.85;21.65;;;;;;;-0.61;74.59;101962.94;1779317;80;25830;-56
2020/12/09 10:23:13;;;;;;;45.83;22.07;;;;;;;-0.54;74.30;101970.67;1779316;80;25688;-56
2020/12/09 10:25:41;;;;;;;50.28;24.55;;;;;;;-0.52;74.08;101962.27;1779252;80;25759;-56
2020/12/09 10:28:09;;;;;;;51.35;20.95;;;;;;;-0.52;73.80;101960.09;1779181;79;26807;-56
2020/12/09 10:30:41;;;;;;;42.90;19.15;;;;;;;-0.51;73.66;101958.72;1739705;82;25609;-56
2020/12/09 10:33:11;;;;;;;40.45;19.80;;;;;;;-0.51;73.73;101950.80;1719239;81;26062;-56
2020/12/09 10:35:44;;;;;;;45.25;20.97;;;;;;;-0.53;73.51;101955.23;1718724;82;25575;-56
2020/12/09 10:38:12;;;;;;;54.23;20.40;;;;;;;-0.48;73.69;101952.05;1710309;83;25878;-57
2020/12/09 10:40:42;;;;;;;46.13;19.65;;;;;;;-0.41;73.36;101945.29;1779500;80;27536;-56
2020/12/09 10:43:10;;;;;;;53.85;21.80;;;;;;;-0.39;73.29;101939.52;1779228;80;26333;-57
2020/12/09 10:45:39;;;;;;;52.00;21.95;;;;;;;-0.40;72.84;101942.60;1779415;79;25686;-56
2020/12/09 10:48:08;;;;;;;50.08;21.27;;;;;;;-0.44;72.85;101938.30;1739540;82;26465;-56
2020/12/09 10:50:38;;;;;;;53.80;21.93;;;;;;;-0.43;72.99;101932.55;1779438;80;25680;-56
2020/12/09 10:53:06;;;;;;;47.45;21.70;;;;;;;-0.42;72.97;101931.22;1779299;79;27537;-56
2020/12/09 10:55:36;;;;;;;50.58;22.52;;;;;;;-0.45;72.25;101925.99;1779294;80;25755;-57
2020/12/09 10:58:05;;;;;;;55.23;22.32;;;;;;;-0.50;72.33;101926.09;1779295;80;25722;-56
2020/12/09 11:00:33;;;;;;;54.35;22.62;;;;;;;-0.53;72.24;101927.48;1779235;80;25684;-56
2020/12/09 11:03:01;;;;;;;49.88;22.00;;;;;;;-0.55;72.54;101927.11;1779385;79;26541;-56
2020/12/09 11:05:29;;;;;;;50.70;22.35;;;;;;;-0.59;72.17;101931.60;1779283;80;28896;-56
2020/12/09 11:07:57;;;;;;;47.05;19.75;;;;;;;-0.61;72.22;101926.80;1779333;80;25724;-56
2020/12/09 11:10:24;;;;;;;38.60;19.50;;;;;;;-0.62;72.22;101925.52;1779392;80;25616;-56
2020/12/09 11:12:52;;;;;;;48.73;20.37;;;;;;;-0.63;72.23;101924.66;1779383;80;25668;-56
2020/12/09 11:15:20;;;;;;;40.05;18.67;;;;;;;-0.67;72.12;101925.16;1779382;80;25633;-56
2020/12/09 11:17:48;;;;;;;41.75;20.80;;;;;;;-0.60;72.10;101927.69;1789697;79;27541;-56
2020/12/09 11:20:16;;;;;;;49.70;20.92;;;;;;;-0.54;72.10;101928.85;1801301;79;26528;-56
2020/12/09 11:22:44;;;;;;;42.55;19.65;;;;;;;-0.49;72.10;101927.84;1779274;80;25703;-56
2020/12/09 11:25:12;;;;;;;40.75;18.15;;;;;;;-0.45;71.84;101937.03;1783598;79;25714;-56